aviador You're here:

LCPH Decoded Metar

PAPHOS in CYPRUS
Report Time2017-12-11 22:30:00
UTC Time2017-12-11 22:57:26
Flight Rules vfr VFR
Wind070° at 03 kt
W.Decomp.*RWY 11: 2.2 kt HW 2.1 kt LCW
W.Rank070° ranks 24
Current wind is below 070° avg. (4.8)
Visibility9999 m
Phenomena:N/A
Clouds:N/A
Expected CloudBase > 1,200 ft AGL from Temp-Dew spread
CeilingNone
Temp12°C (ISA -3)
Dew Point09°C (82% RH)
AAT10.7°C
QNH1024 hPa
Density Alt-541 ft
Elevation26 ft
Report Wrong Elevation
Raw Report
LCPH 112230Z 07003KT 020V100 CAVOK 12/09 Q1024=

Extra information for LCPH:More info

Metar Taf Metar & Taf Last 4 Metars F.Rules Stats Wind Profile Meteogram Temp Stats Airport Information Weather charts Add Link Nearby VenuesMetar ALERT Operation Metar Decoded Social comments